Time;durP1;ratioP1;P1;durP2;ratioP2;P2;SDS_P1;SDS_P2;PMS_P1;PMS_P2;Temp;Humidity;BMP_temperature;BMP_pressure;BME280_temperature;BME280_humidity;BME280_pressure;Samples;Min_cycle;Max_cycle;Signal;HPM_P1;HPM_P2
2023/08/23 00:01:59;;;;;;;8.83;8.20;;;18.30;72.70;;;;;;6236974;28;20250;-81
2023/08/23 00:05:05;;;;;;;6.87;6.47;;;18.30;72.50;;;;;;6236969;28;20290;-80
2023/08/23 00:08:08;;;;;;;5.93;5.57;;;18.30;72.50;;;;;;6236155;28;20238;-81
2023/08/23 00:11:12;;;;;;;6.87;6.47;;;18.30;72.50;;;;;;6234448;28;20251;-83
2023/08/23 00:14:15;;;;;;;6.60;6.27;;;18.30;72.60;;;;;;6226782;28;21162;-81
2023/08/23 00:17:18;;;;;;;6.60;6.30;;;18.20;72.60;;;;;;6231113;28;20758;-81
2023/08/23 00:20:21;;;;;;;6.80;6.30;;;18.20;72.60;;;;;;6228694;28;20314;-81
2023/08/23 00:23:25;;;;;;;7.10;6.63;;;18.20;72.70;;;;;;6236735;28;20230;-83
2023/08/23 00:26:29;;;;;;;7.07;6.47;;;18.10;72.80;;;;;;6228025;28;20277;-81
2023/08/23 00:29:33;;;;;;;7.13;6.73;;;18.10;72.90;;;;;;6235677;28;20240;-84
2023/08/23 00:32:36;;;;;;;6.53;6.13;;;18.10;72.90;;;;;;6237491;28;20358;-83
2023/08/23 00:35:39;;;;;;;7.50;6.90;;;18.00;73.00;;;;;;6232453;28;20239;-81
2023/08/23 00:38:42;;;;;;;7.23;6.83;;;18.00;73.20;;;;;;6237342;28;20317;-83
2023/08/23 00:41:47;;;;;;;8.37;7.57;;;18.00;73.20;;;;;;6237461;28;20242;-82
2023/08/23 00:44:50;;;;;;;7.70;7.20;;;18.00;73.30;;;;;;6233205;28;21627;-83
2023/08/23 00:47:53;;;;;;;7.87;7.17;;;18.00;73.30;;;;;;6238734;28;20282;-82
2023/08/23 00:50:57;;;;;;;7.77;7.23;;;18.00;73.30;;;;;;6236859;28;20226;-84
2023/08/23 00:54:00;;;;;;;8.03;7.33;;;18.00;73.40;;;;;;6236242;28;20276;-83
2023/08/23 00:57:07;;;;;;;6.97;6.57;;;18.00;73.30;;;;;;6243683;28;20254;-82
2023/08/23 01:00:14;;;;;;;6.53;6.23;;;18.00;73.40;;;;;;6236996;28;20682;-84
2023/08/23 01:03:17;;;;;;;6.87;6.43;;;17.90;73.40;;;;;;6237795;28;20316;-83
2023/08/23 01:06:30;;;;;;;7.33;6.73;;;17.90;73.50;;;;;;6236337;28;20751;-82
2023/08/23 01:09:42;;;;;;;6.87;6.47;;;17.80;73.70;;;;;;6218133;28;20313;-82
2023/08/23 01:12:51;;;;;;;6.33;5.93;;;17.80;73.60;;;;;;6231782;28;20246;-81
2023/08/23 01:15:56;;;;;;;6.23;5.93;;;17.80;73.70;;;;;;6237320;28;20325;-83
2023/08/23 01:19:04;;;;;;;6.50;6.10;;;17.80;73.80;;;;;;6218591;28;20250;-80
2023/08/23 01:22:11;;;;;;;6.80;6.40;;;17.70;73.80;;;;;;6239400;28;20732;-80
2023/08/23 01:25:16;;;;;;;6.20;5.90;;;17.70;74.00;;;;;;6225673;28;20762;-83
2023/08/23 01:28:20;;;;;;;6.80;6.40;;;17.70;74.10;;;;;;6217077;28;20839;-82
2023/08/23 01:31:25;;;;;;;7.03;6.43;;;17.70;74.10;;;;;;6235017;28;20879;-83
2023/08/23 01:34:30;;;;;;;7.17;6.57;;;17.70;74.10;;;;;;6235485;28;20249;-84
2023/08/23 01:37:34;;;;;;;8.30;6.40;;;17.60;74.10;;;;;;6237359;28;20289;-82
2023/08/23 01:40:39;;;;;;;7.03;6.53;;;17.60;74.20;;;;;;6227712;28;20246;-82
2023/08/23 01:43:45;;;;;;;6.97;6.40;;;17.60;74.00;;;;;;6234505;28;20250;-85
2023/08/23 01:46:49;;;;;;;5.83;5.53;;;17.60;74.00;;;;;;6232636;28;20325;-83
2023/08/23 01:49:57;;;;;;;6.90;6.60;;;17.60;74.00;;;;;;6234806;28;20261;-82
2023/08/23 01:53:03;;;;;;;6.33;6.03;;;17.60;74.00;;;;;;6213618;28;20407;-85
2023/08/23 01:56:08;;;;;;;8.40;7.73;;;17.60;74.10;;;;;;6233737;28;20254;-85
2023/08/23 01:59:11;;;;;;;7.63;6.87;;;17.50;74.30;;;;;;6231108;28;20234;-85
2023/08/23 02:02:14;;;;;;;9.70;8.40;;;17.50;74.40;;;;;;6226523;28;20934;-83
2023/08/23 02:05:17;;;;;;;6.57;6.23;;;17.50;74.60;;;;;;6231249;28;20363;-82
2023/08/23 02:08:20;;;;;;;10.30;7.47;;;17.50;74.70;;;;;;6233735;28;20245;-84
2023/08/23 02:11:25;;;;;;;6.77;6.27;;;17.60;74.70;;;;;;6240119;28;20242;-83
2023/08/23 02:14:28;;;;;;;6.53;5.93;;;17.60;74.70;;;;;;6238782;28;20242;-80
2023/08/23 02:17:31;;;;;;;6.27;5.90;;;17.60;74.50;;;;;;6235999;28;20988;-83
2023/08/23 02:20:35;;;;;;;5.53;5.33;;;17.50;74.40;;;;;;6238560;28;20369;-82
2023/08/23 02:23:38;;;;;;;6.10;5.80;;;17.50;74.40;;;;;;6235850;28;20239;-82
2023/08/23 02:26:43;;;;;;;6.17;5.77;;;17.50;74.40;;;;;;6239222;28;20242;-83
2023/08/23 02:29:46;;;;;;;6.50;6.10;;;17.50;74.40;;;;;;6243757;28;20246;-82
2023/08/23 02:32:50;;;;;;;6.17;5.77;;;17.40;74.50;;;;;;6241187;28;20376;-83
2023/08/23 02:35:53;;;;;;;6.33;6.03;;;17.40;74.60;;;;;;6233314;28;20360;-84
2023/08/23 02:38:56;;;;;;;6.13;5.83;;;17.40;74.70;;;;;;6238466;28;20696;-85
2023/08/23 02:42:00;;;;;;;6.33;5.97;;;17.40;74.70;;;;;;6246497;28;20896;-84
2023/08/23 02:45:04;;;;;;;6.30;5.90;;;17.40;74.80;;;;;;6234239;28;20224;-82
2023/08/23 02:48:08;;;;;;;6.27;5.97;;;17.40;74.80;;;;;;6210233;28;20819;-83
2023/08/23 02:51:11;;;;;;;5.97;5.63;;;17.40;74.80;;;;;;6238609;28;20249;-85
2023/08/23 02:54:14;;;;;;;6.27;5.93;;;17.40;74.80;;;;;;6237301;28;20273;-85
2023/08/23 02:57:19;;;;;;;6.40;6.13;;;17.40;74.70;;;;;;6219842;28;20802;-83
2023/08/23 03:00:22;;;;;;;6.03;5.73;;;17.30;74.70;;;;;;6222973;28;20224;-83
2023/08/23 03:03:25;;;;;;;6.80;6.40;;;17.20;74.70;;;;;;6236407;28;20238;-83
2023/08/23 03:06:28;;;;;;;6.30;6.03;;;17.20;74.70;;;;;;6244883;28;20234;-83
2023/08/23 03:09:32;;;;;;;6.73;6.33;;;17.20;74.80;;;;;;6234858;28;20916;-83
2023/08/23 03:12:36;;;;;;;6.73;6.33;;;17.20;75.00;;;;;;6236191;28;20243;-83
2023/08/23 03:15:39;;;;;;;6.17;5.97;;;17.20;75.10;;;;;;6230605;28;20250;-83
2023/08/23 03:18:42;;;;;;;6.53;6.13;;;17.20;75.10;;;;;;6231489;28;20848;-82
2023/08/23 03:21:45;;;;;;;6.53;6.13;;;17.20;75.10;;;;;;6237138;28;20300;-83
2023/08/23 03:24:49;;;;;;;5.90;5.60;;;17.20;75.10;;;;;;6211736;28;20291;-84
2023/08/23 03:27:54;;;;;;;5.57;5.37;;;17.20;75.00;;;;;;6214201;28;20239;-82
2023/08/23 03:31:03;;;;;;;6.63;6.33;;;17.20;75.10;;;;;;6230555;28;20262;-82
2023/08/23 03:34:06;;;;;;;7.47;7.03;;;17.20;75.10;;;;;;6228781;28;20847;-80
2023/08/23 03:37:09;;;;;;;7.30;6.80;;;17.10;75.30;;;;;;6236759;28;20237;-80
2023/08/23 03:40:12;;;;;;;8.03;7.53;;;17.10;75.50;;;;;;6237211;28;20242;-77
2023/08/23 03:43:17;;;;;;;7.60;7.20;;;17.10;75.70;;;;;;6237622;28;20235;-77
2023/08/23 03:46:24;;;;;;;6.67;6.27;;;17.20;75.80;;;;;;6218507;28;20238;-78
2023/08/23 03:49:27;;;;;;;7.90;7.50;;;17.20;75.70;;;;;;6224543;28;20254;-76
2023/08/23 03:52:31;;;;;;;7.77;7.03;;;17.20;75.70;;;;;;6210193;28;20290;-77
2023/08/23 03:55:36;;;;;;;8.20;7.50;;;17.20;75.70;;;;;;6231484;28;20329;-76
2023/08/23 03:58:41;;;;;;;10.00;9.00;;;17.20;75.80;;;;;;6236772;28;20235;-78
2023/08/23 04:01:44;;;;;;;10.93;9.40;;;17.20;76.00;;;;;;6236546;28;20955;-76
2023/08/23 04:04:49;;;;;;;10.43;9.27;;;17.20;76.00;;;;;;6236044;28;20321;-77
2023/08/23 04:07:52;;;;;;;10.33;9.47;;;17.20;76.00;;;;;;6195735;28;20244;-77
2023/08/23 04:10:55;;;;;;;10.40;9.27;;;17.20;75.80;;;;;;6225049;28;20327;-76
2023/08/23 04:14:02;;;;;;;11.47;8.37;;;17.20;75.80;;;;;;6222896;28;20272;-79
2023/08/23 04:17:05;;;;;;;9.93;9.23;;;17.20;75.60;;;;;;6204448;28;20242;-78
2023/08/23 04:20:10;;;;;;;10.40;9.40;;;17.30;75.50;;;;;;6232336;28;20254;-78
2023/08/23 04:23:13;;;;;;;11.20;10.30;;;17.20;75.50;;;;;;6234254;28;20226;-76
2023/08/23 04:26:16;;;;;;;11.20;10.10;;;17.20;75.70;;;;;;6237600;28;20305;-78
2023/08/23 04:29:22;;;;;;;10.63;8.83;;;17.20;75.70;;;;;;6237227;28;20238;-77
2023/08/23 04:32:25;;;;;;;9.70;8.83;;;17.20;75.60;;;;;;6232589;28;20263;-76
2023/08/23 04:35:29;;;;;;;9.50;8.70;;;17.20;75.60;;;;;;6232575;28;20231;-78
2023/08/23 04:38:34;;;;;;;9.37;8.50;;;17.20;75.60;;;;;;6237384;28;20249;-79
2023/08/23 04:41:37;;;;;;;9.67;8.73;;;17.20;75.70;;;;;;6235461;28;20317;-77
2023/08/23 04:44:42;;;;;;;10.93;9.30;;;17.20;75.60;;;;;;6236875;28;20227;-79
2023/08/23 04:47:45;;;;;;;13.10;9.30;;;17.30;75.60;;;;;;6230993;28;20318;-77
2023/08/23 04:50:51;;;;;;;10.70;9.33;;;17.20;75.60;;;;;;6236635;28;20235;-77
2023/08/23 04:53:54;;;;;;;12.10;9.17;;;17.20;75.70;;;;;;6235873;28;20662;-78
2023/08/23 04:56:57;;;;;;;9.33;8.53;;;17.20;75.70;;;;;;6229656;28;20307;-78
2023/08/23 05:00:02;;;;;;;8.27;7.77;;;17.30;75.50;;;;;;6230450;28;20333;-78
2023/08/23 05:03:06;;;;;;;9.43;8.53;;;17.30;75.50;;;;;;6233753;28;20242;-77
2023/08/23 05:06:09;;;;;;;10.53;8.80;;;17.30;75.50;;;;;;6237590;28;20263;-77
2023/08/23 05:09:12;;;;;;;10.63;9.67;;;17.40;75.50;;;;;;6236443;28;20292;-77
2023/08/23 05:12:15;;;;;;;11.77;10.57;;;17.40;75.50;;;;;;6242151;28;20234;-79
2023/08/23 05:15:20;;;;;;;11.83;9.47;;;17.50;75.40;;;;;;6236670;28;20745;-79
2023/08/23 05:18:23;;;;;;;10.33;9.17;;;17.40;75.60;;;;;;6219743;28;20241;-79
2023/08/23 05:21:26;;;;;;;9.93;9.23;;;17.50;75.50;;;;;;6232337;28;20279;-77
2023/08/23 05:24:29;;;;;;;10.53;9.03;;;17.50;75.40;;;;;;6230636;28;21002;-78
2023/08/23 05:27:32;;;;;;;9.33;8.47;;;17.60;75.30;;;;;;6235615;28;20646;-78
2023/08/23 05:30:38;;;;;;;8.77;8.20;;;17.60;75.20;;;;;;6236387;28;20238;-78
2023/08/23 05:33:42;;;;;;;9.47;8.57;;;17.70;75.10;;;;;;6224580;28;20243;-78
2023/08/23 05:36:45;;;;;;;9.93;9.17;;;17.80;74.90;;;;;;6234170;28;20943;-75
2023/08/23 05:39:48;;;;;;;9.07;8.33;;;17.90;74.90;;;;;;6214224;28;20320;-81
2023/08/23 05:42:51;;;;;;;7.60;7.10;;;18.00;74.70;;;;;;6242426;28;20234;-78
2023/08/23 05:45:57;;;;;;;10.47;9.27;;;18.10;74.60;;;;;;6235684;28;20712;-76
2023/08/23 05:49:00;;;;;;;10.17;9.20;;;18.20;74.30;;;;;;6232242;28;20242;-79
2023/08/23 05:52:03;;;;;;;9.70;8.80;;;18.30;73.90;;;;;;6240116;28;20262;-78
2023/08/23 05:55:08;;;;;;;8.80;8.20;;;18.40;73.80;;;;;;6236319;28;20377;-78
2023/08/23 05:58:11;;;;;;;10.53;9.53;;;18.50;73.50;;;;;;6239351;28;20266;-78
2023/08/23 06:01:19;;;;;;;9.83;8.83;;;18.70;72.80;;;;;;6237472;28;20234;-81
2023/08/23 06:04:23;;;;;;;9.70;8.63;;;18.90;72.60;;;;;;6234673;28;20241;-80
2023/08/23 06:07:26;;;;;;;9.80;8.83;;;19.00;72.50;;;;;;6236073;28;20227;-79
2023/08/23 06:10:29;;;;;;;8.03;7.33;;;19.10;71.80;;;;;;6240744;28;20230;-79
2023/08/23 06:13:33;;;;;;;7.43;6.83;;;19.40;72.10;;;;;;6247089;28;20715;-79
2023/08/23 06:16:37;;;;;;;7.60;7.00;;;19.70;71.50;;;;;;6223706;28;20270;-77
2023/08/23 06:19:40;;;;;;;8.77;7.90;;;20.00;70.80;;;;;;6231075;28;20235;-78
2023/08/23 06:22:44;;;;;;;9.37;7.67;;;20.10;68.70;;;;;;6235689;28;20249;-80
2023/08/23 06:25:47;;;;;;;8.20;7.40;;;20.10;69.20;;;;;;6234605;28;20238;-79
2023/08/23 06:28:50;;;;;;;8.67;7.60;;;20.30;69.30;;;;;;6234169;28;20400;-78
2023/08/23 06:31:54;;;;;;;8.73;7.10;;;20.80;67.40;;;;;;6232850;28;20555;-77
2023/08/23 06:34:57;;;;;;;9.37;7.73;;;20.90;66.90;;;;;;6238721;28;20263;-78
2023/08/23 06:38:00;;;;;;;8.83;7.30;;;20.60;67.30;;;;;;6229692;28;20226;-81
2023/08/23 06:41:04;;;;;;;7.83;7.03;;;20.60;67.40;;;;;;6226104;28;20250;-82
2023/08/23 06:44:07;;;;;;;9.50;7.33;;;20.70;67.10;;;;;;6238699;28;20235;-80
2023/08/23 06:47:11;;;;;;;9.93;7.37;;;20.70;67.10;;;;;;6229444;28;20250;-82
2023/08/23 06:50:14;;;;;;;7.30;6.70;;;20.90;66.70;;;;;;6246046;28;20736;-81
2023/08/23 06:53:19;;;;;;;7.57;6.87;;;21.00;66.20;;;;;;6237994;28;20278;-79
2023/08/23 06:56:22;;;;;;;11.27;6.30;;;21.00;65.70;;;;;;6237965;28;20325;-82
2023/08/23 06:59:25;;;;;;;6.53;5.93;;;21.10;66.00;;;;;;6237122;28;20804;-81
2023/08/23 07:02:29;;;;;;;6.37;5.87;;;21.10;65.80;;;;;;6238393;28;20292;-79
2023/08/23 07:05:34;;;;;;;7.17;6.33;;;21.00;65.40;;;;;;6236403;28;20235;-80
2023/08/23 07:08:37;;;;;;;7.00;6.40;;;21.10;65.80;;;;;;6236602;28;20242;-78
2023/08/23 07:11:40;;;;;;;5.83;5.43;;;21.00;65.90;;;;;;6229512;28;20612;-82
2023/08/23 07:14:45;;;;;;;6.90;6.13;;;21.10;65.60;;;;;;6236800;28;20365;-80
2023/08/23 07:17:50;;;;;;;6.53;5.93;;;21.20;65.60;;;;;;6237325;28;20238;-79
2023/08/23 07:20:53;;;;;;;5.53;5.13;;;21.30;65.40;;;;;;6234078;28;20242;-77
2023/08/23 07:23:58;;;;;;;5.07;4.70;;;21.30;64.00;;;;;;6235116;28;20321;-79
2023/08/23 07:27:01;;;;;;;5.90;5.43;;;21.30;64.60;;;;;;6247358;28;20230;-77
2023/08/23 07:30:06;;;;;;;5.17;4.67;;;21.40;63.60;;;;;;6243521;28;20249;-77
2023/08/23 07:33:11;;;;;;;6.23;5.27;;;21.40;63.40;;;;;;6233678;28;20289;-79
2023/08/23 07:36:15;;;;;;;5.07;4.60;;;21.50;63.80;;;;;;6218159;28;20248;-77
2023/08/23 07:39:18;;;;;;;5.67;5.00;;;21.50;63.50;;;;;;6235996;28;20326;-78
2023/08/23 07:42:21;;;;;;;6.93;6.40;;;21.70;63.30;;;;;;6231315;28;20803;-79
2023/08/23 07:45:24;;;;;;;7.23;5.30;;;21.90;62.60;;;;;;6228795;28;20326;-79
2023/08/23 07:48:28;;;;;;;4.83;4.53;;;22.00;62.70;;;;;;6237091;28;20325;-78
2023/08/23 07:51:31;;;;;;;3.87;3.43;;;22.00;61.30;;;;;;6226493;28;20322;-79
2023/08/23 07:54:34;;;;;;;6.43;4.20;;;22.00;59.80;;;;;;6229950;28;20239;-78
2023/08/23 07:57:37;;;;;;;4.37;3.47;;;21.90;60.00;;;;;;6237446;28;20341;-79
2023/08/23 08:00:40;;;;;;;4.00;3.30;;;22.00;60.20;;;;;;6246815;28;20253;-79
2023/08/23 08:03:45;;;;;;;4.07;3.77;;;22.10;60.30;;;;;;6231057;28;20249;-80
2023/08/23 08:06:48;;;;;;;3.13;3.03;;;22.30;60.00;;;;;;6229668;28;20235;-76
2023/08/23 08:09:51;;;;;;;3.33;3.20;;;22.40;60.10;;;;;;6234897;28;20335;-77
2023/08/23 08:12:54;;;;;;;6.20;4.53;;;22.50;60.40;;;;;;6209581;28;20271;-78
2023/08/23 08:15:59;;;;;;;5.20;3.97;;;22.60;60.30;;;;;;6209771;28;20258;-77
2023/08/23 08:19:04;;;;;;;4.10;3.80;;;22.60;60.30;;;;;;6237272;28;20238;-76
2023/08/23 08:22:07;;;;;;;4.67;4.27;;;22.70;60.70;;;;;;6231746;28;20242;-76
2023/08/23 08:25:10;;;;;;;6.10;3.93;;;22.90;59.60;;;;;;6210116;28;20439;-78
2023/08/23 08:28:16;;;;;;;4.50;4.20;;;23.00;59.30;;;;;;6221698;28;20239;-78
2023/08/23 08:31:19;;;;;;;6.83;4.30;;;22.90;60.40;;;;;;6207694;28;20245;-80
2023/08/23 08:34:24;;;;;;;5.40;4.33;;;23.00;59.50;;;;;;6231438;28;20233;-78
2023/08/23 08:37:27;;;;;;;4.50;4.20;;;22.90;60.00;;;;;;6210740;28;20839;-77
2023/08/23 08:40:31;;;;;;;5.10;4.70;;;22.90;60.60;;;;;;6235998;28;20321;-79
2023/08/23 08:43:35;;;;;;;5.20;4.80;;;23.00;60.70;;;;;;6236924;28;20250;-78
2023/08/23 08:46:40;;;;;;;5.50;4.53;;;23.00;60.70;;;;;;6237263;28;20257;-79
2023/08/23 08:49:45;;;;;;;5.70;5.20;;;23.10;60.70;;;;;;6232494;28;20844;-78
2023/08/23 08:52:52;;;;;;;5.73;4.63;;;23.10;60.30;;;;;;6245781;28;20250;-78
2023/08/23 08:55:56;;;;;;;6.93;4.90;;;23.20;60.40;;;;;;6242929;28;20354;-78
2023/08/23 08:59:00;;;;;;;5.27;4.90;;;23.10;60.00;;;;;;6224967;28;20238;-79
2023/08/23 09:02:05;;;;;;;5.70;5.20;;;23.10;60.50;;;;;;6219820;28;20587;-77
2023/08/23 09:05:10;;;;;;;4.33;4.00;;;23.30;60.50;;;;;;6231741;28;20672;-80
2023/08/23 09:08:14;;;;;;;5.30;5.00;;;23.40;59.90;;;;;;6233789;28;20246;-79
2023/08/23 09:11:18;;;;;;;6.07;4.73;;;23.50;59.60;;;;;;6225104;28;20235;-79
2023/08/23 09:14:25;;;;;;;7.50;4.43;;;23.60;59.30;;;;;;6234099;28;20406;-77
2023/08/23 09:17:33;;;;;;;4.93;4.57;;;23.60;59.80;;;;;;6232097;28;20245;-77
2023/08/23 09:20:38;;;;;;;6.93;5.17;;;23.80;59.50;;;;;;6239811;28;20245;-80
2023/08/23 09:23:41;;;;;;;4.47;4.27;;;24.00;58.40;;;;;;6233420;28;20235;-80
2023/08/23 09:26:44;;;;;;;4.40;4.20;;;24.20;57.80;;;;;;6239460;28;20258;-78
2023/08/23 09:29:48;;;;;;;4.33;4.13;;;24.30;57.50;;;;;;6238883;28;20238;-77
2023/08/23 09:32:51;;;;;;;6.20;5.13;;;24.40;57.60;;;;;;6235674;28;20312;-79
2023/08/23 09:35:58;;;;;;;4.57;4.40;;;24.30;57.40;;;;;;6238591;28;20273;-78
2023/08/23 09:39:07;;;;;;;4.87;4.23;;;24.40;56.80;;;;;;6236126;28;20361;-78
2023/08/23 09:42:14;;;;;;;4.30;4.00;;;24.40;57.20;;;;;;6237880;28;20238;-80
2023/08/23 09:45:19;;;;;;;6.03;4.00;;;24.50;57.50;;;;;;6245657;28;20241;-80
2023/08/23 09:48:24;;;;;;;5.00;4.70;;;24.60;57.10;;;;;;6238832;28;20262;-78
2023/08/23 09:51:31;;;;;;;4.30;4.00;;;24.50;56.90;;;;;;6238302;28;20333;-78
2023/08/23 09:54:40;;;;;;;6.73;4.23;;;24.60;57.10;;;;;;6232645;28;20285;-79
2023/08/23 09:57:56;;;;;;;4.37;4.10;;;24.90;56.30;;;;;;6237325;28;20223;-79
2023/08/23 10:00:59;;;;;;;5.17;4.67;;;24.80;56.70;;;;;;6245668;28;20226;-79
2023/08/23 10:04:03;;;;;;;4.13;3.80;;;25.00;56.00;;;;;;6228025;28;20238;-78
2023/08/23 10:07:08;;;;;;;8.90;4.80;;;25.00;56.40;;;;;;6229920;28;20239;-79
2023/08/23 10:10:11;;;;;;;3.83;3.63;;;24.70;56.50;;;;;;6228872;28;20282;-80
2023/08/23 10:13:15;;;;;;;8.60;4.27;;;24.70;56.20;;;;;;6238060;28;20387;-78
2023/08/23 10:16:20;;;;;;;3.60;3.33;;;24.80;56.60;;;;;;6236041;28;20608;-78
2023/08/23 10:19:23;;;;;;;3.10;3.00;;;24.70;55.40;;;;;;6236034;28;20863;-79
2023/08/23 10:22:28;;;;;;;4.60;3.10;;;25.00;53.90;;;;;;6213540;28;20246;-78
2023/08/23 10:25:35;;;;;;;3.53;3.33;;;25.20;54.70;;;;;;6222768;28;20231;-80
2023/08/23 10:28:48;;;;;;;5.03;4.60;;;25.00;54.50;;;;;;6218824;28;20310;-81
2023/08/23 10:31:53;;;;;;;3.77;3.53;;;24.80;54.40;;;;;;6213632;28;20280;-79
2023/08/23 10:34:56;;;;;;;2.80;2.60;;;24.70;54.50;;;;;;6208877;28;20853;-79
2023/08/23 10:38:01;;;;;;;3.40;3.17;;;24.90;54.60;;;;;;6206670;28;20918;-80
2023/08/23 10:41:04;;;;;;;2.73;2.53;;;25.00;54.50;;;;;;6220419;28;20321;-81
2023/08/23 10:44:15;;;;;;;4.50;3.13;;;25.00;54.30;;;;;;6216130;28;20326;-79
2023/08/23 10:47:19;;;;;;;5.20;3.10;;;25.20;53.80;;;;;;6218897;28;20891;-78
2023/08/23 10:50:23;;;;;;;3.00;2.70;;;25.20;53.30;;;;;;6215851;28;20302;-79
2023/08/23 10:53:28;;;;;;;3.20;3.07;;;25.20;53.70;;;;;;6212004;28;20242;-79
2023/08/23 10:56:31;;;;;;;3.90;2.83;;;25.00;53.50;;;;;;6223618;28;20340;-78
2023/08/23 10:59:35;;;;;;;2.97;2.80;;;25.00;54.20;;;;;;6208260;28;20267;-80
2023/08/23 11:02:38;;;;;;;2.70;2.50;;;25.10;54.70;;;;;;6223021;28;20450;-80
2023/08/23 11:05:44;;;;;;;3.70;3.20;;;25.20;53.30;;;;;;6209924;28;20239;-80
2023/08/23 11:08:49;;;;;;;3.03;2.73;;;25.00;53.60;;;;;;6208967;28;20247;-80
2023/08/23 11:11:52;;;;;;;3.13;3.00;;;25.00;54.00;;;;;;6216007;28;20254;-79
2023/08/23 11:14:57;;;;;;;2.57;2.37;;;25.20;54.30;;;;;;6214458;28;20263;-81
2023/08/23 11:18:01;;;;;;;3.10;2.80;;;25.50;54.30;;;;;;6213274;28;20243;-81
2023/08/23 11:21:05;;;;;;;4.97;2.90;;;25.70;53.20;;;;;;6236138;28;20697;-78
2023/08/23 11:24:09;;;;;;;2.90;2.80;;;25.60;52.90;;;;;;6209317;28;20235;-80
2023/08/23 11:27:13;;;;;;;3.03;2.73;;;25.50;53.10;;;;;;6226941;28;20611;-81
2023/08/23 11:30:16;;;;;;;3.23;3.03;;;25.40;53.40;;;;;;6212791;28;20635;-78
2023/08/23 11:33:19;;;;;;;3.10;3.07;;;25.40;53.50;;;;;;6232685;28;20304;-78
2023/08/23 11:36:23;;;;;;;4.37;2.50;;;25.20;53.60;;;;;;6241330;28;20231;-80
2023/08/23 11:39:27;;;;;;;3.33;3.13;;;25.10;54.90;;;;;;6233471;28;20277;-79
2023/08/23 11:42:30;;;;;;;3.03;2.93;;;25.00;54.00;;;;;;6240375;28;20238;-81
2023/08/23 11:45:37;;;;;;;3.20;3.10;;;25.00;54.30;;;;;;6237841;28;20234;-81
2023/08/23 11:48:41;;;;;;;2.60;2.40;;;25.00;53.40;;;;;;6232138;28;20313;-81
2023/08/23 11:51:49;;;;;;;3.03;2.27;;;25.10;53.40;;;;;;6233504;28;20238;-81
2023/08/23 11:54:54;;;;;;;3.20;3.00;;;25.30;52.50;;;;;;6247128;28;20246;-80
2023/08/23 11:57:57;;;;;;;3.13;2.50;;;25.60;53.20;;;;;;6236998;28;20242;-79
2023/08/23 12:01:00;;;;;;;2.93;2.70;;;26.00;52.40;;;;;;6236385;28;20250;-80
2023/08/23 12:04:04;;;;;;;6.43;2.60;;;26.40;52.80;;;;;;6236000;28;20262;-79
2023/08/23 12:07:07;;;;;;;2.63;2.53;;;26.50;51.00;;;;;;6232589;28;20720;-80
2023/08/23 12:10:25;;;;;;;2.83;2.50;;;26.60;51.50;;;;;;6206278;28;21144;-77
2023/08/23 12:13:29;;;;;;;2.80;2.80;;;26.40;51.50;;;;;;6204758;28;20339;-78
2023/08/23 12:16:32;;;;;;;5.50;2.57;;;26.00;50.70;;;;;;6231947;28;20247;-78
2023/08/23 12:19:37;;;;;;;2.70;2.53;;;25.80;51.10;;;;;;6224588;28;20262;-79
2023/08/23 12:22:45;;;;;;;2.53;2.43;;;25.80;50.40;;;;;;6224154;28;20246;-79
2023/08/23 12:25:49;;;;;;;2.53;2.40;;;25.60;49.50;;;;;;6225283;28;20884;-78
2023/08/23 12:28:52;;;;;;;2.70;2.50;;;25.80;49.50;;;;;;6220770;28;20717;-78
2023/08/23 12:31:56;;;;;;;2.13;2.13;;;26.00;50.30;;;;;;6234002;28;20245;-78
2023/08/23 12:35:00;;;;;;;2.10;2.10;;;25.90;50.90;;;;;;6227947;28;20747;-79
2023/08/23 12:38:04;;;;;;;4.10;3.93;;;26.00;51.20;;;;;;6232559;28;20293;-78
2023/08/23 12:41:08;;;;;;;3.47;3.13;;;26.00;50.70;;;;;;6231276;28;20257;-81
2023/08/23 12:44:11;;;;;;;3.33;3.13;;;26.00;50.90;;;;;;6214665;28;20810;-79
2023/08/23 12:47:14;;;;;;;5.33;2.93;;;26.00;50.10;;;;;;6227385;28;20238;-79
2023/08/23 12:50:17;;;;;;;2.57;2.43;;;26.10;49.70;;;;;;6224407;28;20242;-79
2023/08/23 12:53:20;;;;;;;3.23;2.70;;;26.00;50.10;;;;;;6223243;28;20305;-82
2023/08/23 12:56:25;;;;;;;2.80;2.70;;;26.30;50.70;;;;;;6217891;28;20246;-80
2023/08/23 12:59:28;;;;;;;4.10;3.07;;;26.30;48.80;;;;;;6222415;28;20313;-81
2023/08/23 13:02:31;;;;;;;2.53;2.43;;;26.00;49.20;;;;;;6228606;28;20284;-79
2023/08/23 13:05:34;;;;;;;2.30;2.10;;;26.20;48.40;;;;;;6225349;28;20242;-80
2023/08/23 13:08:38;;;;;;;3.00;2.80;;;25.80;48.00;;;;;;6231661;28;20239;-79
2023/08/23 13:11:42;;;;;;;2.60;2.40;;;26.00;47.80;;;;;;6227439;28;20247;-78
2023/08/23 13:14:45;;;;;;;2.47;2.30;;;26.30;48.00;;;;;;6227257;28;20734;-79
2023/08/23 13:17:49;;;;;;;3.90;2.13;;;26.60;47.90;;;;;;6227405;28;20242;-79
2023/08/23 13:20:52;;;;;;;2.73;2.60;;;26.80;48.20;;;;;;6219737;28;20274;-79
2023/08/23 13:23:59;;;;;;;3.23;2.93;;;26.50;47.50;;;;;;6212943;28;20243;-79
2023/08/23 13:27:03;;;;;;;2.13;2.13;;;26.40;47.90;;;;;;6209349;28;20888;-82
2023/08/23 13:30:08;;;;;;;2.40;2.30;;;26.50;48.00;;;;;;6202784;28;20246;-82
2023/08/23 13:33:12;;;;;;;2.33;2.20;;;26.70;47.70;;;;;;6203474;28;20531;-81
2023/08/23 13:36:15;;;;;;;2.57;2.40;;;26.90;48.60;;;;;;6213469;28;20374;-80
2023/08/23 13:39:19;;;;;;;3.47;2.57;;;26.70;47.80;;;;;;6215279;28;20855;-80
2023/08/23 13:42:25;;;;;;;2.87;2.77;;;26.70;48.40;;;;;;6210593;28;20231;-81
2023/08/23 13:45:28;;;;;;;2.43;2.33;;;26.60;46.50;;;;;;6201011;28;20256;-79
2023/08/23 13:48:31;;;;;;;2.10;2.00;;;26.60;47.70;;;;;;6209867;28;20745;-80
2023/08/23 13:51:35;;;;;;;2.80;2.47;;;26.40;48.20;;;;;;6213121;28;20271;-80
2023/08/23 13:54:40;;;;;;;3.10;2.50;;;26.10;48.90;;;;;;6211462;28;20277;-78
2023/08/23 13:57:44;;;;;;;2.70;2.60;;;26.10;48.90;;;;;;6206640;28;20242;-80
2023/08/23 14:00:48;;;;;;;2.47;2.27;;;26.30;49.40;;;;;;6214010;28;20247;-82
2023/08/23 14:03:51;;;;;;;2.67;2.47;;;26.40;48.60;;;;;;6213504;28;20231;-82
2023/08/23 14:06:56;;;;;;;2.53;2.40;;;26.50;49.80;;;;;;6207373;28;20236;-82
2023/08/23 14:09:59;;;;;;;2.70;2.50;;;26.40;48.50;;;;;;6210824;28;20246;-82
2023/08/23 14:13:03;;;;;;;2.13;2.13;;;26.40;47.80;;;;;;6217805;28;20238;-82
2023/08/23 14:16:06;;;;;;;2.67;2.57;;;26.40;47.80;;;;;;6206519;28;20611;-82
2023/08/23 14:19:10;;;;;;;2.67;2.63;;;26.60;46.90;;;;;;6212750;28;20238;-80
2023/08/23 14:22:13;;;;;;;3.43;2.40;;;26.60;46.70;;;;;;6212380;28;20231;-81
2023/08/23 14:25:16;;;;;;;2.93;2.73;;;26.50;47.00;;;;;;6207047;28;20314;-82
2023/08/23 14:28:21;;;;;;;3.70;2.60;;;26.40;46.90;;;;;;6209101;28;20228;-81
2023/08/23 14:31:24;;;;;;;2.90;2.70;;;26.60;47.80;;;;;;6203847;28;20381;-81
2023/08/23 14:34:27;;;;;;;2.47;2.27;;;26.60;47.90;;;;;;6213196;28;20719;-81
2023/08/23 14:37:30;;;;;;;2.40;2.30;;;26.80;47.60;;;;;;6202573;28;20317;-82
2023/08/23 14:40:33;;;;;;;2.87;2.67;;;26.90;47.30;;;;;;6204388;28;20314;-83
2023/08/23 14:43:38;;;;;;;2.43;2.33;;;27.10;47.00;;;;;;6208858;28;20232;-81
2023/08/23 14:46:41;;;;;;;2.90;2.80;;;26.80;45.90;;;;;;6207477;28;20267;-80
2023/08/23 14:49:44;;;;;;;3.13;2.43;;;26.90;45.70;;;;;;6209644;28;20334;-83
2023/08/23 14:52:48;;;;;;;2.67;2.57;;;27.00;44.60;;;;;;6209751;28;20246;-84
2023/08/23 14:55:51;;;;;;;2.97;2.77;;;27.10;45.20;;;;;;6211427;28;20852;-80
2023/08/23 14:58:56;;;;;;;2.50;2.40;;;27.10;45.40;;;;;;6203927;28;20235;-81
2023/08/23 15:01:59;;;;;;;2.73;2.57;;;26.90;46.00;;;;;;6212622;28;20731;-83
2023/08/23 15:05:03;;;;;;;2.30;2.10;;;27.00;45.80;;;;;;6210842;28;20291;-83
2023/08/23 15:08:07;;;;;;;2.83;2.63;;;26.90;46.10;;;;;;6211866;28;20244;-81
2023/08/23 15:11:13;;;;;;;2.53;2.33;;;27.00;46.40;;;;;;6210646;28;20243;-82
2023/08/23 15:14:18;;;;;;;2.63;2.53;;;27.00;46.50;;;;;;6210866;28;20725;-80
2023/08/23 15:17:21;;;;;;;2.43;2.40;;;26.80;46.40;;;;;;6207121;28;21481;-84
2023/08/23 15:20:24;;;;;;;2.73;2.60;;;26.70;47.10;;;;;;6204875;28;20239;-83
2023/08/23 15:23:27;;;;;;;2.97;2.87;;;26.70;47.20;;;;;;6206803;28;20308;-84
2023/08/23 15:26:30;;;;;;;4.00;2.60;;;26.70;47.20;;;;;;6210521;28;20747;-80
2023/08/23 15:29:34;;;;;;;2.80;2.70;;;26.90;47.60;;;;;;6204290;28;20338;-82
2023/08/23 15:32:45;;;;;;;4.93;2.33;;;27.00;47.30;;;;;;6199428;28;20235;-83
2023/08/23 15:35:48;;;;;;;4.37;2.67;;;27.10;47.10;;;;;;6205242;28;20977;-82
2023/08/23 15:38:53;;;;;;;2.17;2.13;;;27.40;47.10;;;;;;6213269;28;20277;-79
2023/08/23 15:41:57;;;;;;;2.23;2.23;;;27.50;47.80;;;;;;6207284;28;20255;-80
2023/08/23 15:45:02;;;;;;;2.33;2.33;;;27.30;47.10;;;;;;6206457;28;20243;-82
2023/08/23 15:48:06;;;;;;;5.60;2.77;;;27.10;47.60;;;;;;6207553;28;20295;-82
2023/08/23 15:51:10;;;;;;;2.43;2.40;;;26.90;47.60;;;;;;6206254;28;20881;-80
2023/08/23 15:54:13;;;;;;;3.13;2.47;;;26.90;48.30;;;;;;6198431;28;20239;-79
2023/08/23 15:57:17;;;;;;;2.50;2.40;;;26.60;48.50;;;;;;6208372;28;20284;-81